Time;durP1;ratioP1;P1;durP2;ratioP2;P2;SDS_P1;SDS_P2;PMS_P1;PMS_P2;Temp;Humidity;BMP_temperature;BMP_pressure;BME280_temperature;BME280_humidity;BME280_pressure;Samples;Min_cycle;Max_cycle;Signal;HPM_P1;HPM_P2
2022/10/10 00:01:09;;;;;;;10.38;5.80;;;;;;;;;;5071006;28;20923;-79
2022/10/10 00:03:35;;;;;;;11.50;5.90;;;;;;;;;;5053224;28;20419;-79
2022/10/10 00:06:01;;;;;;;8.80;5.57;;;;;;;;;;5040849;28;20739;-80
2022/10/10 00:08:27;;;;;;;10.57;6.00;;;;;;;;;;5053543;28;20424;-79
2022/10/10 00:10:53;;;;;;;10.00;6.03;;;;;;;;;;5055529;28;20408;-80
2022/10/10 00:13:19;;;;;;;9.43;5.95;;;;;;;;;;5069444;28;20419;-79
2022/10/10 00:15:45;;;;;;;8.07;5.80;;;;;;;;;;5070690;28;20442;-79
2022/10/10 00:18:11;;;;;;;10.05;6.03;;;;;;;;;;5069867;28;20945;-79
2022/10/10 00:20:38;;;;;;;8.45;6.03;;;;;;;;;;5054384;28;20420;-80
2022/10/10 00:23:04;;;;;;;10.50;5.97;;;;;;;;;;5072019;28;20484;-79
2022/10/10 00:25:30;;;;;;;9.40;6.05;;;;;;;;;;5069016;28;20426;-79
2022/10/10 00:28:00;;;;;;;9.48;5.85;;;8.60;99.90;;;;;;5054547;28;20431;-79
2022/10/10 00:30:26;;;;;;;7.88;5.80;;;;;;;;;;5069392;28;20498;-79
2022/10/10 00:32:52;;;;;;;8.98;5.85;;;;;;;;;;5070702;28;20416;-79
2022/10/10 00:35:18;;;;;;;10.17;6.10;;;;;;;;;;5069915;28;20930;-79
2022/10/10 00:37:44;;;;;;;10.13;5.72;;;;;;;;;;5073515;28;20860;-80
2022/10/10 00:40:10;;;;;;;10.80;6.00;;;;;;;;;;5068090;28;20411;-79
2022/10/10 00:42:37;;;;;;;11.90;6.10;;;;;;;;;;5054689;28;20514;-78
2022/10/10 00:45:21;;;;;;;10.45;5.90;;;;;;;;;;5102475;28;20498;-79
2022/10/10 00:47:49;;;;;;;10.15;6.00;;;;;;;;;;5055081;28;20427;-79
2022/10/10 00:50:16;;;;;;;10.25;6.05;;;;;;;;;;5069699;28;20458;-79
2022/10/10 00:52:42;;;;;;;10.40;6.45;;;;;;;;;;5072019;28;20456;-79
2022/10/10 00:55:08;;;;;;;9.23;6.30;;;;;;;;;;5052404;28;20491;-79
2022/10/10 00:57:34;;;;;;;8.70;6.20;;;;;;;;;;5071342;28;20822;-79
2022/10/10 01:00:00;;;;;;;10.40;6.30;;;;;;;;;;5069609;28;20507;-79
2022/10/10 01:02:26;;;;;;;9.77;6.40;;;;;;;;;;5072935;28;20419;-78
2022/10/10 01:04:55;;;;;;;10.32;6.35;;;;;;;;;;5072901;28;20755;-78
2022/10/10 01:07:23;;;;;;;9.10;6.00;;;;;;;;;;5069737;28;20420;-78
2022/10/10 01:09:50;;;;;;;10.27;6.10;;;;;;;;;;5074135;28;20460;-78
2022/10/10 01:12:19;;;;;;;11.32;6.28;;;;;;;;;;5054324;28;20431;-78
2022/10/10 01:14:50;;;;;;;9.93;6.63;;;;;;;;;;5068750;28;20536;-79
2022/10/10 01:17:22;;;;;;;8.75;6.63;;;;;;;;;;5072206;28;20907;-78
2022/10/10 01:20:08;;;;;;;11.13;6.53;;;;;;;;;;5073473;28;20403;-78
2022/10/10 01:22:50;;;;;;;10.43;6.82;;;;;;;;;;5069490;28;20502;-78
2022/10/10 01:25:50;;;;;;;10.73;6.50;;;8.10;99.90;;;;;;5071982;28;20741;-78
2022/10/10 01:28:22;;;;;;;10.53;7.10;;;;;;;;;;5088790;28;20833;-77
2022/10/10 01:30:49;;;;;;;8.90;6.50;;;;;;;;;;5054318;28;20426;-79
2022/10/10 01:33:23;;;;;;;10.15;6.72;;;7.80;99.90;;;;;;5050885;28;20476;-78
2022/10/10 01:36:03;;;;;;;10.88;6.53;;;;;;;;;;5071969;28;20396;-77
2022/10/10 01:38:38;;;;;;;10.55;6.65;;;;;;;;;;5070848;28;20930;-77
2022/10/10 01:41:15;;;;;;;11.25;7.18;;;;;;;;;;5058116;28;20436;-77
2022/10/10 01:43:42;;;;;;;10.82;7.00;;;;;;;;;;5074899;28;20916;-79
2022/10/10 01:46:15;;;;;;;9.30;6.50;;;;;;;;;;5078018;28;20398;-78
2022/10/10 01:48:43;;;;;;;11.60;7.05;;;;;;;;;;5087572;28;20446;-78
2022/10/10 01:51:24;;;;;;;9.88;6.57;;;;;;;;;;5094855;28;20453;-78
2022/10/10 01:54:23;;;;;;;10.70;6.60;;;7.60;99.90;;;;;;5090010;28;20422;-78
2022/10/10 01:57:14;;;;;;;11.38;7.05;;;8.10;99.90;;;;;;5040400;28;20524;-78
2022/10/10 01:59:49;;;;;;;8.82;6.63;;;;;;;;;;5076749;28;20467;-78
2022/10/10 02:02:21;;;;;;;10.63;7.10;;;;;;;;;;5092665;28;20425;-77
2022/10/10 02:04:49;;;;;;;10.20;6.93;;;;;;;;;;5075419;28;20410;-78
2022/10/10 02:07:23;;;;;;;11.30;6.68;;;;;;;;;;5092015;28;20418;-78
2022/10/10 02:09:50;;;;;;;9.48;6.78;;;;;;;;;;5070346;28;20426;-78
2022/10/10 02:12:17;;;;;;;8.60;6.70;;;;;;;;;;5092164;28;20757;-78
2022/10/10 02:14:45;;;;;;;10.83;6.90;;;;;;;;;;5091379;28;20469;-78
2022/10/10 02:17:13;;;;;;;10.68;7.32;;;;;;;;;;5074732;28;20428;-78
2022/10/10 02:19:42;;;;;;;10.77;7.05;;;;;;;;;;5087661;28;20421;-79
2022/10/10 02:22:08;;;;;;;13.23;7.13;;;;;;;;;;5074251;28;20428;-78
2022/10/10 02:24:35;;;;;;;10.50;7.05;;;;;;;;;;5075695;28;20418;-78
2022/10/10 02:27:27;;;;;;;11.77;7.53;;;;;;;;;;5094153;28;20486;-79
2022/10/10 02:29:57;;;;;;;9.65;7.28;;;7.80;99.90;;;;;;5072213;28;20514;-78
2022/10/10 02:32:29;;;;;;;9.73;7.00;;;;;;;;;;5060302;28;20401;-78
2022/10/10 02:34:58;;;;;;;12.93;7.03;;;7.80;99.90;;;;;;5074117;28;20421;-78
2022/10/10 02:37:24;;;;;;;10.95;7.28;;;;;;;;;;5060667;28;20426;-78
2022/10/10 02:39:53;;;;;;;10.15;6.78;;;;;;;;;;5078793;28;20432;-78
2022/10/10 02:42:21;;;;;;;12.00;7.35;;;;;;;;;;5077282;28;20466;-78
2022/10/10 02:44:47;;;;;;;11.88;7.30;;;;;;;;;;5060551;28;20420;-79
2022/10/10 02:47:13;;;;;;;14.73;7.70;;;;;;;;;;5061601;28;20477;-78
2022/10/10 02:49:40;;;;;;;13.43;7.63;;;;;;;;;;5070446;28;20450;-78
2022/10/10 02:52:06;;;;;;;9.88;6.65;;;;;;;;;;5055255;28;20911;-78
2022/10/10 02:54:32;;;;;;;11.48;7.13;;;;;;;;;;5059602;28;20745;-78
2022/10/10 02:57:01;;;;;;;12.35;7.30;;;;;;;;;;5073897;28;21197;-79
2022/10/10 02:59:27;;;;;;;10.75;7.30;;;;;;;;;;5072703;28;20821;-79
2022/10/10 03:01:53;;;;;;;10.15;7.68;;;;;;;;;;5073316;28;20427;-78
2022/10/10 03:04:19;;;;;;;11.97;7.77;;;;;;;;;;5054630;28;20607;-78
2022/10/10 03:06:45;;;;;;;12.35;7.65;;;;;;;;;;5071444;28;20427;-78
2022/10/10 03:09:11;;;;;;;12.50;7.53;;;;;;;;;;5056838;28;20958;-78
2022/10/10 03:11:37;;;;;;;10.83;7.40;;;;;;;;;;5055412;28;20463;-78
2022/10/10 03:14:04;;;;;;;11.07;7.28;;;;;;;;;;5073581;28;20407;-78
2022/10/10 03:16:30;;;;;;;11.82;7.78;;;;;;;;;;5071583;28;20415;-78
2022/10/10 03:18:56;;;;;;;12.00;7.10;;;;;;;;;;5069157;28;20452;-78
2022/10/10 03:21:22;;;;;;;10.65;7.47;;;;;;;;;;5037993;28;20509;-78
2022/10/10 03:23:48;;;;;;;10.95;7.60;;;;;;;;;;5073702;28;20533;-78
2022/10/10 03:26:14;;;;;;;13.52;7.30;;;;;;;;;;5073055;28;20403;-78
2022/10/10 03:28:40;;;;;;;9.38;7.32;;;;;;;;;;5072012;28;20903;-78
2022/10/10 03:31:06;;;;;;;11.85;8.05;;;;;;;;;;5073067;28;20487;-78
2022/10/10 03:33:34;;;;;;;10.80;7.97;;;;;;;;;;5036536;28;20434;-78
2022/10/10 03:36:00;;;;;;;11.60;8.20;;;;;;;;;;5071785;28;20510;-78
2022/10/10 03:38:26;;;;;;;12.88;7.57;;;;;;;;;;5055474;28;20481;-78
2022/10/10 03:40:52;;;;;;;12.23;7.90;;;;;;;;;;5056131;28;20430;-79
2022/10/10 03:43:18;;;;;;;10.23;7.77;;;;;;;;;;5074844;28;20432;-78
2022/10/10 03:45:46;;;;;;;12.00;8.10;;;;;;;;;;5091834;28;20418;-78
2022/10/10 03:48:12;;;;;;;10.27;7.78;;;;;;;;;;5089385;28;20436;-78
2022/10/10 03:50:38;;;;;;;10.93;7.38;;;;;;;;;;5075636;28;20845;-78
2022/10/10 03:53:05;;;;;;;13.63;8.20;;;;;;;;;;5074738;28;20410;-78
2022/10/10 03:55:31;;;;;;;12.10;7.97;;;;;;;;;;5092719;28;20831;-78
2022/10/10 03:57:57;;;;;;;13.60;8.07;;;;;;;;;;5074873;28;20482;-78
2022/10/10 04:00:23;;;;;;;12.27;8.07;;;;;;;;;;5073842;28;20398;-78
2022/10/10 04:02:50;;;;;;;11.10;7.80;;;;;;;;;;5074472;28;20521;-79
2022/10/10 04:05:16;;;;;;;12.10;7.90;;;;;;;;;;5091684;28;20445;-78
2022/10/10 04:07:42;;;;;;;11.65;7.95;;;;;;;;;;5091052;28;21185;-78
2022/10/10 04:10:09;;;;;;;15.70;8.40;;;;;;;;;;5092819;28;20836;-79
2022/10/10 04:12:35;;;;;;;12.10;8.15;;;;;;;;;;5071606;28;20418;-79
2022/10/10 04:15:01;;;;;;;14.65;8.10;;;;;;;;;;5106335;28;20418;-78
2022/10/10 04:17:27;;;;;;;11.38;8.10;;;;;;;;;;5092643;28;20751;-79
2022/10/10 04:19:53;;;;;;;13.25;8.57;;;;;;;;;;5090352;28;20418;-79
2022/10/10 04:22:19;;;;;;;11.07;7.90;;;;;;;;;;5074803;28;20497;-79
2022/10/10 04:24:45;;;;;;;12.60;8.02;;;;;;;;;;5072340;28;20422;-78
2022/10/10 04:27:11;;;;;;;13.85;7.88;;;;;;;;;;5074185;28;20413;-79
2022/10/10 04:29:38;;;;;;;10.95;8.07;;;;;;;;;;5089803;28;20457;-78
2022/10/10 04:32:04;;;;;;;12.55;7.75;;;;;;;;;;5091020;28;20464;-80
2022/10/10 04:34:30;;;;;;;11.45;7.70;;;;;;;;;;5073548;28;20421;-79
2022/10/10 04:36:56;;;;;;;13.65;7.90;;;;;;;;;;5090761;28;20434;-79
2022/10/10 04:39:22;;;;;;;13.02;7.45;;;;;;;;;;5072818;28;20460;-79
2022/10/10 04:41:48;;;;;;;10.67;7.77;;;;;;;;;;5086930;28;20514;-79
2022/10/10 04:44:15;;;;;;;13.25;8.02;;;;;;;;;;5066980;28;20485;-79
2022/10/10 04:46:41;;;;;;;13.10;8.27;;;;;;;;;;5070302;28;20447;-79
2022/10/10 04:49:07;;;;;;;13.20;7.85;;;;;;;;;;5069442;28;20477;-79
2022/10/10 04:51:33;;;;;;;11.65;7.63;;;;;;;;;;5069838;28;20466;-79
2022/10/10 04:53:59;;;;;;;13.37;8.40;;;;;;;;;;5068929;28;20469;-79
2022/10/10 04:56:26;;;;;;;12.82;8.45;;;;;;;;;;5070582;28;20438;-78
2022/10/10 04:58:52;;;;;;;13.65;7.72;;;;;;;;;;5069639;28;20485;-79
2022/10/10 05:01:18;;;;;;;12.30;7.90;;;;;;;;;;5068834;28;20499;-79
2022/10/10 05:03:44;;;;;;;11.50;7.78;;;;;;;;;;5070702;28;20426;-80
2022/10/10 05:06:10;;;;;;;12.98;8.07;;;;;;;;;;5069790;28;20570;-79
2022/10/10 05:08:36;;;;;;;13.15;8.27;;;;;;;;;;5053076;28;20940;-79
2022/10/10 05:11:05;;;;;;;14.32;8.55;;;;;;;;;;5103539;28;20419;-79
2022/10/10 05:13:31;;;;;;;12.90;8.63;;;;;;;;;;5069386;28;20592;-79
2022/10/10 05:16:00;;;;;;;14.07;8.38;;;;;;;;;;5069385;28;20494;-79
2022/10/10 05:18:26;;;;;;;13.65;8.27;;;;;;;;;;5070889;28;20403;-79
2022/10/10 05:20:52;;;;;;;13.80;8.50;;;;;;;;;;5067952;28;20426;-80
2022/10/10 05:23:18;;;;;;;13.80;8.30;;;;;;;;;;5069856;28;20430;-79
2022/10/10 05:25:45;;;;;;;13.45;8.60;;;;;;;;;;5053004;28;20447;-79
2022/10/10 05:28:11;;;;;;;12.90;8.02;;;;;;;;;;5069444;28;20806;-77
2022/10/10 05:30:37;;;;;;;13.85;8.50;;;;;;;;;;5069490;28;20438;-78
2022/10/10 05:33:03;;;;;;;13.83;8.60;;;;;;;;;;5053790;28;20458;-78
2022/10/10 05:35:29;;;;;;;13.40;9.13;;;;;;;;;;5052880;28;20404;-79
2022/10/10 05:37:55;;;;;;;14.10;8.48;;;;;;;;;;5070934;28;20434;-78
2022/10/10 05:40:22;;;;;;;13.75;9.52;;;;;;;;;;5054019;28;20511;-79
2022/10/10 05:42:48;;;;;;;14.82;8.32;;;;;;;;;;5060167;28;20476;-79
2022/10/10 05:45:14;;;;;;;14.60;8.50;;;;;;;;;;5050353;28;20735;-79
2022/10/10 05:47:40;;;;;;;16.55;9.00;;;;;;;;;;5053267;28;20420;-79
2022/10/10 05:50:07;;;;;;;13.25;8.40;;;;;;;;;;5052036;28;20423;-80
2022/10/10 05:52:34;;;;;;;13.90;8.38;;;;;;;;;;5068547;28;20415;-79
2022/10/10 05:55:00;;;;;;;15.60;8.73;;;;;;;;;;5070139;28;20759;-79
2022/10/10 05:57:26;;;;;;;12.52;8.77;;;;;;;;;;5068662;28;20788;-79
2022/10/10 05:59:53;;;;;;;16.23;8.50;;;;;;;;;;5070387;28;20865;-79
2022/10/10 06:02:19;;;;;;;13.93;8.40;;;;;;;;;;5066607;28;20927;-79
2022/10/10 06:04:45;;;;;;;13.07;8.13;;;;;;;;;;5069550;28;20426;-79
2022/10/10 06:07:12;;;;;;;14.50;8.60;;;;;;;;;;5050401;28;20813;-80
2022/10/10 06:09:38;;;;;;;10.82;8.38;;;;;;;;;;5101805;28;20432;-79
2022/10/10 06:12:04;;;;;;;13.75;8.38;;;;;;;;;;5067599;28;20476;-79
2022/10/10 06:14:30;;;;;;;12.50;8.35;;;;;;;;;;5053582;28;20406;-78
2022/10/10 06:16:56;;;;;;;13.27;8.93;;;;;;;;;;5067606;28;20427;-79
2022/10/10 06:19:22;;;;;;;12.35;9.10;;;;;;;;;;5069140;28;20411;-79
2022/10/10 06:21:48;;;;;;;13.45;8.88;;;;;;;;;;5050791;28;20423;-79
2022/10/10 06:24:14;;;;;;;14.13;8.98;;;;;;;;;;5032129;28;20421;-79
2022/10/10 06:26:40;;;;;;;13.32;8.52;;;;;;;;;;5050043;28;20428;-79
2022/10/10 06:29:07;;;;;;;13.82;8.80;;;;;;;;;;5066371;28;20423;-79
2022/10/10 06:31:33;;;;;;;14.50;8.77;;;;;;;;;;5050328;28;20922;-80
2022/10/10 06:33:59;;;;;;;15.55;8.90;;;;;;;;;;5051370;28;20423;-78
2022/10/10 06:36:25;;;;;;;13.82;9.00;;;;;;;;;;5037232;28;20997;-79
2022/10/10 06:38:51;;;;;;;14.57;8.90;;;;;;;;;;5049873;28;20503;-79
2022/10/10 06:41:17;;;;;;;13.70;8.33;;;;;;;;;;5068320;28;20421;-79
2022/10/10 06:43:43;;;;;;;13.82;9.25;;;;;;;;;;5051996;28;20426;-79
2022/10/10 06:46:10;;;;;;;12.80;9.35;;;;;;;;;;5053598;28;20404;-79
2022/10/10 06:48:37;;;;;;;15.52;9.75;;;;;;;;;;5050856;28;20411;-80
2022/10/10 06:51:03;;;;;;;12.63;8.15;;;;;;;;;;5070238;28;20787;-79
2022/10/10 06:53:30;;;;;;;15.93;10.18;;;;;;;;;;5101580;28;20419;-80
2022/10/10 06:55:56;;;;;;;12.88;8.93;;;;;;;;;;5063472;28;20839;-81
2022/10/10 06:58:23;;;;;;;12.15;9.05;;;;;;;;;;5066295;28;20512;-81
2022/10/10 07:01:00;;;;;;;13.23;8.33;;;;;;;;;;5050450;28;20941;-81
2022/10/10 07:03:26;;;;;;;11.35;8.10;;;;;;;;;;5065628;28;20444;-80
2022/10/10 07:05:55;;;;;;;11.48;8.77;;;9.40;99.90;;;;;;5050951;28;20416;-80
2022/10/10 07:08:22;;;;;;;13.98;9.18;;;;;;;;;;5067644;28;20422;-80
2022/10/10 07:10:48;;;;;;;13.27;8.43;;;;;;;;;;5067403;28;20411;-79
2022/10/10 07:13:15;;;;;;;12.98;8.63;;;;;;;;;;5069022;28;20494;-79
2022/10/10 07:15:42;;;;;;;13.80;7.80;;;;;;;;;;5068546;28;20958;-80
2022/10/10 07:18:08;;;;;;;12.02;8.13;;;;;;;;;;5050319;28;20499;-79
2022/10/10 07:20:35;;;;;;;12.95;8.45;;;9.60;99.90;;;;;;5066704;28;20438;-79
2022/10/10 07:23:01;;;;;;;12.90;8.32;;;;;;;;;;5050709;28;20538;-79
2022/10/10 07:25:27;;;;;;;12.02;8.13;;;;;;;;;;5070974;28;20426;-80
2022/10/10 07:27:55;;;;;;;11.93;8.30;;;;;;;;;;5062952;28;20415;-79
2022/10/10 07:30:21;;;;;;;12.07;7.97;;;;;;;;;;5071435;28;20426;-80
2022/10/10 07:32:47;;;;;;;13.05;8.20;;;;;;;;;;5055045;28;20412;-79
2022/10/10 07:35:13;;;;;;;11.57;7.97;;;;;;;;;;5104059;28;20420;-79
2022/10/10 07:37:39;;;;;;;11.93;7.63;;;;;;;;;;5054639;28;20514;-80
2022/10/10 07:40:07;;;;;;;12.80;7.50;;;;;;;;;;5056025;28;20430;-80
2022/10/10 07:42:34;;;;;;;12.33;8.13;;;;;;;;;;5069423;28;20492;-79
2022/10/10 07:45:00;;;;;;;10.95;7.97;;;;;;;;;;5071934;28;20427;-80
2022/10/10 07:47:26;;;;;;;13.33;7.70;;;;;;;;;;5069814;28;20570;-79
2022/10/10 07:49:52;;;;;;;10.80;7.35;;;;;;;;;;5071057;28;20416;-80
2022/10/10 07:52:18;;;;;;;11.25;7.72;;;;;;;;;;5048600;28;20937;-80
2022/10/10 07:54:44;;;;;;;13.50;7.80;;;;;;;;;;5054433;28;20902;-80
2022/10/10 07:57:10;;;;;;;10.83;7.43;;;;;;;;;;5085010;28;20502;-79
2022/10/10 07:59:39;;;;;;;12.68;7.70;;;;;;;;;;5049068;28;20913;-79
2022/10/10 08:02:05;;;;;;;11.43;7.57;;;;;;;;;;5060004;28;20423;-80
2022/10/10 08:04:31;;;;;;;12.00;7.63;;;;;;;;;;5055620;28;20414;-78
2022/10/10 08:06:57;;;;;;;12.55;7.63;;;;;;;;;;5068072;28;20472;-78
2022/10/10 08:09:24;;;;;;;12.07;7.93;;;;;;;;;;5071963;28;20930;-77
2022/10/10 08:11:50;;;;;;;13.75;7.15;;;;;;;;;;5055004;28;20408;-77
2022/10/10 08:14:16;;;;;;;12.48;7.50;;;;;;;;;;5055101;28;20510;-78
2022/10/10 08:16:42;;;;;;;11.57;7.75;;;;;;;;;;5052691;28;20502;-78
2022/10/10 08:19:08;;;;;;;11.15;7.18;;;;;;;;;;5054356;28;20420;-79
2022/10/10 08:21:35;;;;;;;11.70;7.95;;;;;;;;;;5067662;28;20428;-79
2022/10/10 08:24:02;;;;;;;11.65;7.57;;;;;;;;;;5070667;28;20485;-76
2022/10/10 08:26:28;;;;;;;14.25;7.88;;;;;;;;;;5070503;28;20427;-77
2022/10/10 08:28:54;;;;;;;10.35;7.75;;;;;;;;;;5054099;28;20416;-76
2022/10/10 08:31:21;;;;;;;11.37;7.60;;;;;;;;;;5098005;28;20632;-77
2022/10/10 08:33:48;;;;;;;11.82;7.28;;;;;;;;;;5061073;28;20518;-76
2022/10/10 08:36:15;;;;;;;12.63;7.63;;;;;;;;;;5061741;28;20431;-76
2022/10/10 08:38:41;;;;;;;12.30;7.90;;;;;;;;;;5063252;28;20522;-76
2022/10/10 08:41:14;;;;;;;11.18;7.80;;;13.00;99.90;;;;;;5064989;28;20423;-76
2022/10/10 08:43:41;;;;;;;11.13;7.72;;;;;;;;;;5080335;28;20420;-77
2022/10/10 08:46:11;;;;;;;11.98;7.53;;;;;;;;;;5055944;28;20461;-77
2022/10/10 08:48:39;;;;;;;12.45;8.13;;;12.50;99.90;;;;;;5070811;28;20474;-76
2022/10/10 08:51:12;;;;;;;11.85;7.47;;;;;;;;;;5068054;28;20447;-76
2022/10/10 08:53:47;;;;;;;12.27;8.00;;;12.70;99.90;;;;;;5068159;28;20984;-76
2022/10/10 08:56:20;;;;;;;15.03;7.90;;;;;;;;;;5070176;28;20490;-76
2022/10/10 08:58:48;;;;;;;14.13;7.97;;;;;;;;;;5068759;28;20919;-77
2022/10/10 09:01:24;;;;;;;12.40;7.57;;;12.90;99.90;;;;;;5069392;28;20427;-77
2022/10/10 09:03:51;;;;;;;12.50;7.93;;;;;;;;;;5069254;28;20424;-76
2022/10/10 09:06:43;;;;;;;12.50;7.80;;;13.30;99.90;;;;;;5059452;28;20507;-77
2022/10/10 09:09:31;;;;;;;12.93;7.97;;;;;;;;;;5049909;28;20503;-77
2022/10/10 09:12:06;;;;;;;11.05;7.70;;;;;;;;;;5049229;28;20430;-78
2022/10/10 09:14:32;;;;;;;12.20;8.10;;;;;;;;;;5046184;28;20991;-77
2022/10/10 09:17:01;;;;;;;11.15;7.70;;;;;;;;;;5063670;28;20466;-77
2022/10/10 09:19:30;;;;;;;14.00;7.77;;;;;;;;;;5067421;28;20416;-76
2022/10/10 09:22:02;;;;;;;11.13;7.85;;;13.50;99.90;;;;;;5065230;28;20434;-77
2022/10/10 09:24:37;;;;;;;12.47;8.10;;;13.50;99.90;;;;;;5066485;28;20808;-77
2022/10/10 09:27:04;;;;;;;14.30;8.07;;;;;;;;;;5101666;28;20431;-76
2022/10/10 09:29:39;;;;;;;12.68;7.60;;;;;;;;;;5052252;28;20774;-75
2022/10/10 09:32:05;;;;;;;11.23;7.88;;;;;;;;;;5050244;28;20458;-75
2022/10/10 09:34:34;;;;;;;11.75;8.10;;;;;;;;;;5050399;28;20427;-76
2022/10/10 09:37:01;;;;;;;12.73;8.10;;;13.30;99.90;;;;;;5048749;28;20423;-76
2022/10/10 09:39:31;;;;;;;13.93;7.85;;;;;;;;;;5062817;28;20423;-76
2022/10/10 09:42:02;;;;;;;15.25;8.50;;;;;;;;;;5053571;28;20429;-76
2022/10/10 09:44:28;;;;;;;12.70;8.13;;;;;;;;;;5066133;28;20414;-75
2022/10/10 09:46:58;;;;;;;12.30;8.10;;;;;;;;;;5068420;28;20427;-76
2022/10/10 09:49:24;;;;;;;11.68;7.88;;;;;;;;;;5087919;28;20418;-76
2022/10/10 09:51:50;;;;;;;15.80;7.73;;;14.30;99.90;;;;;;5068829;28;20562;-76
2022/10/10 09:54:19;;;;;;;11.32;7.75;;;;;;;;;;5099508;28;20959;-76
2022/10/10 09:56:48;;;;;;;9.77;7.90;;;;;;;;;;5068947;28;20824;-76
2022/10/10 09:59:47;;;;;;;13.05;8.43;;;;;;;;;;5086826;28;20433;-76
2022/10/10 10:02:18;;;;;;;13.97;8.30;;;14.30;99.90;;;;;;5021531;28;20422;-76
2022/10/10 10:04:45;;;;;;;11.15;7.68;;;;;;;;;;5081992;28;20444;-76
2022/10/10 10:07:19;;;;;;;10.80;8.05;;;15.00;99.90;;;;;;5053341;28;20509;-76
2022/10/10 10:09:50;;;;;;;13.00;8.07;;;;;;;;;;5054627;28;20433;-76
2022/10/10 10:12:40;;;;;;;14.25;8.18;;;15.00;99.90;;;;;;5085089;28;20425;-75
2022/10/10 10:15:16;;;;;;;11.43;7.68;;;;;;;;;;5048876;28;22136;-75
2022/10/10 10:17:42;;;;;;;11.95;7.50;;;;;;;;;;5103098;28;20428;-76
2022/10/10 10:20:27;;;;;;;13.03;7.77;;;;;;;;;;5070144;28;20410;-76
2022/10/10 10:22:53;;;;;;;12.53;7.87;;;;;;;;;;5069541;28;20920;-75
2022/10/10 10:25:37;;;;;;;12.23;7.55;;;15.90;99.90;;;;;;5083633;28;20421;-76
2022/10/10 10:28:19;;;;;;;10.23;7.05;;;;;;;;;;5036823;28;20431;-76
2022/10/10 10:30:45;;;;;;;10.77;7.40;;;15.80;99.90;;;;;;5079768;28;21244;-75
2022/10/10 10:33:14;;;;;;;12.13;7.47;;;;;;;;;;5086399;28;20453;-74
2022/10/10 10:35:48;;;;;;;13.57;7.68;;;;;;;;;;5083503;28;20418;-74
2022/10/10 10:38:37;;;;;;;12.50;7.05;;;;;;;;;;5088694;28;20494;-74
2022/10/10 10:41:04;;;;;;;11.38;7.00;;;16.30;99.90;;;;;;5041222;28;20470;-74
2022/10/10 10:43:43;;;;;;;11.77;7.35;;;;;;;;;;5071808;28;20807;-74
2022/10/10 10:46:28;;;;;;;10.60;6.80;;;;;;;;;;5072921;28;20398;-74
2022/10/10 10:49:01;;;;;;;10.93;7.05;;;;;;;;;;5073004;28;20897;-74
2022/10/10 10:51:40;;;;;;;11.30;7.10;;;;;;;;;;5072948;28;20908;-74
2022/10/10 10:54:18;;;;;;;12.35;7.60;;;16.30;99.90;;;;;;5088778;28;20453;-74
2022/10/10 10:56:58;;;;;;;10.30;6.90;;;16.30;99.90;;;;;;5073188;28;20467;-74
2022/10/10 10:59:24;;;;;;;9.98;7.15;;;;;;;;;;5075012;28;20479;-73
2022/10/10 11:02:35;;;;;;;11.00;7.65;;;15.90;99.90;;;;;;5093607;28;20516;-74
2022/10/10 11:05:20;;;;;;;13.75;7.38;;;15.90;99.90;;;;;;5057909;28;20418;-73
2022/10/10 11:07:59;;;;;;;12.48;8.02;;;;;;;;;;5054915;28;20762;-74
2022/10/10 11:10:44;;;;;;;13.38;8.10;;;;;;;;;;5072898;28;20743;-72
2022/10/10 11:13:10;;;;;;;12.52;7.85;;;;;;;;;;5108754;28;20892;-74
2022/10/10 11:15:38;;;;;;;13.88;8.15;;;;;;;;;;5074485;28;20455;-73
2022/10/10 11:18:17;;;;;;;14.20;9.13;;;;;;;;;;5076204;28;20761;-73
2022/10/10 11:20:53;;;;;;;14.02;9.15;;;15.30;99.90;;;;;;5068348;28;20594;-73
2022/10/10 11:23:34;;;;;;;13.30;8.73;;;15.10;99.90;;;;;;5105421;28;20418;-73
2022/10/10 11:26:15;;;;;;;14.50;9.85;;;14.90;99.90;;;;;;5074189;28;20478;-74
2022/10/10 11:28:47;;;;;;;18.20;9.77;;;;;;;;;;5072786;28;20928;-73
2022/10/10 11:31:16;;;;;;;15.13;9.35;;;;;;;;;;5071273;28;20418;-74
2022/10/10 11:33:48;;;;;;;13.02;9.63;;;;;;;;;;5091638;28;20441;-73
2022/10/10 11:36:18;;;;;;;14.50;9.52;;;;;;;;;;5074135;28;20605;-73
2022/10/10 11:38:58;;;;;;;15.68;9.50;;;14.80;99.90;;;;;;5073795;28;20422;-73
2022/10/10 11:41:27;;;;;;;13.88;9.38;;;;;;;;;;5070868;28;20421;-74
2022/10/10 11:43:56;;;;;;;13.93;9.70;;;;;;;;;;5072541;28;20773;-73
2022/10/10 11:46:41;;;;;;;14.43;10.43;;;;;;;;;;5072089;28;20849;-74
2022/10/10 11:49:12;;;;;;;15.03;10.23;;;;;;;;;;5074279;28;20506;-75
2022/10/10 11:51:56;;;;;;;17.13;10.15;;;;;;;;;;5086350;28;20418;-74
2022/10/10 11:54:35;;;;;;;17.52;9.75;;;;;;;;;;5099287;27;20410;-73
2022/10/10 11:57:07;;;;;;;17.23;10.68;;;14.70;99.90;;;;;;5067678;28;20431;-73
2022/10/10 11:59:43;;;;;;;17.00;10.57;;;;;;;;;;5101296;27;20460;-74
2022/10/10 12:02:17;;;;;;;15.38;9.70;;;14.80;99.90;;;;;;5054193;28;20433;-73
2022/10/10 12:04:43;;;;;;;15.75;10.63;;;14.50;99.90;;;;;;5057897;28;20921;-73
2022/10/10 12:07:15;;;;;;;16.87;10.03;;;;;;;;;;5066243;28;20490;-73
2022/10/10 12:09:43;;;;;;;16.85;10.85;;;;;;;;;;5089696;28;20485;-73
2022/10/10 12:12:19;;;;;;;16.52;10.57;;;;;;;;;;5073114;28;20456;-74
2022/10/10 12:14:52;;;;;;;15.93;10.20;;;;;;;;;;5070883;28;20425;-73
2022/10/10 12:17:21;;;;;;;15.82;9.98;;;;;;;;;;5073858;28;20784;-74
2022/10/10 12:19:48;;;;;;;13.95;9.95;;;;;;;;;;5092374;28;20409;-74
2022/10/10 12:22:27;;;;;;;16.57;10.00;;;14.80;99.90;;;;;;5072322;28;20468;-74
2022/10/10 12:25:08;;;;;;;17.42;10.35;;;;;;;;;;5098207;28;20471;-74
2022/10/10 12:27:59;;;;;;;17.58;10.38;;;14.70;99.90;;;;;;5072567;28;20410;-73
2022/10/10 12:30:25;;;;;;;17.67;10.68;;;;;;;;;;5072070;28;20793;-72
2022/10/10 12:32:54;;;;;;;21.00;11.80;;;;;;;;;;5050560;28;20436;-72
2022/10/10 12:35:28;;;;;;;15.80;11.20;;;;;;;;;;5068795;28;20430;-72
2022/10/10 12:38:15;;;;;;;15.07;11.63;;;14.60;99.90;;;;;;5071918;28;20436;-73
2022/10/10 12:40:56;;;;;;;17.38;11.48;;;;;;;;;;5051334;28;20429;-72
2022/10/10 12:43:34;;;;;;;18.13;11.60;;;14.60;99.90;;;;;;5057222;28;20434;-73
2022/10/10 12:46:18;;;;;;;19.92;12.68;;;;;;;;;;5051652;28;20426;-73
2022/10/10 12:48:45;;;;;;;19.33;12.35;;;14.40;99.90;;;;;;5077566;28;20503;-73
2022/10/10 12:51:21;;;;;;;22.73;12.52;;;;;;;;;;5051963;28;20478;-73
2022/10/10 12:53:50;;;;;;;20.05;12.93;;;;;;;;;;5067402;28;20428;-73
2022/10/10 12:56:15;;;;;;;23.35;13.52;;;14.30;99.90;;;;;;5065185;28;20425;-74
2022/10/10 12:58:42;;;;;;;21.30;13.43;;;;;;;;;;5048690;28;20426;-75
2022/10/10 13:01:21;;;;;;;20.15;13.60;;;;;;;;;;5053496;28;20449;-74
2022/10/10 13:03:49;;;;;;;20.30;13.50;;;;;;;;;;5085612;28;20458;-74
2022/10/10 13:06:24;;;;;;;24.95;14.35;;;;;;;;;;5070456;28;20467;-74
2022/10/10 13:08:51;;;;;;;20.63;14.53;;;14.40;99.90;;;;;;5103834;28;20870;-75
2022/10/10 13:11:18;;;;;;;20.20;13.73;;;;;;;;;;5071437;28;20853;-74
2022/10/10 13:13:55;;;;;;;21.45;13.90;;;14.40;99.90;;;;;;5036957;28;20423;-73
2022/10/10 13:16:23;;;;;;;20.65;13.77;;;;;;;;;;5067824;28;21705;-74
2022/10/10 13:18:56;;;;;;;24.15;14.40;;;;;;;;;;5073137;28;20424;-73
2022/10/10 13:21:25;;;;;;;23.75;15.10;;;;;;;;;;5050638;28;20925;-73
2022/10/10 13:23:53;;;;;;;24.55;15.30;;;;;;;;;;5072050;28;20421;-73
2022/10/10 13:26:19;;;;;;;25.45;15.23;;;;;;;;;;5074092;28;20437;-73
2022/10/10 13:28:45;;;;;;;23.23;15.45;;;;;;;;;;5073458;28;20457;-72
2022/10/10 13:31:12;;;;;;;26.27;16.65;;;14.00;99.90;;;;;;5088844;28;20826;-72
2022/10/10 13:33:38;;;;;;;24.83;15.82;;;;;;;;;;5054099;28;20413;-72
2022/10/10 13:36:06;;;;;;;16.75;9.40;;;;;;;;;;5054672;28;20620;-71
2022/10/10 13:38:33;;;;;;;9.65;4.80;;;;;;;;;;5084732;28;20425;-72
2022/10/10 13:41:00;;;;;;;10.02;2.80;;;;;;;;;;5072785;28;20425;-72
2022/10/10 13:43:27;;;;;;;8.70;2.47;;;;;;;;;;5072098;28;20429;-73
2022/10/10 13:45:59;;;;;;;11.13;2.33;;;12.80;99.90;;;;;;5073925;28;20920;-73
2022/10/10 13:48:32;;;;;;;11.05;2.25;;;12.70;99.90;;;;;;5072562;28;20423;-72
2022/10/10 13:51:06;;;;;;;9.52;2.30;;;12.50;99.90;;;;;;5070769;28;20940;-71
2022/10/10 13:53:34;;;;;;;11.27;2.50;;;;;;;;;;5071458;28;20425;-72
2022/10/10 13:56:12;;;;;;;11.20;2.58;;;;;;;;;;5088388;28;20424;-73
2022/10/10 13:58:41;;;;;;;11.52;2.20;;;;;;;;;;5073594;28;20913;-72
2022/10/10 14:01:19;;;;;;;12.77;2.40;;;;;;;;;;5073377;28;20500;-72
2022/10/10 14:03:47;;;;;;;13.52;2.50;;;12.00;99.90;;;;;;5075924;28;20455;-72
2022/10/10 14:06:22;;;;;;;12.80;4.95;;;12.30;99.90;;;;;;5063598;28;21576;-72
2022/10/10 14:08:48;;;;;;;9.18;2.47;;;;;;;;;;5083260;28;20894;-73
2022/10/10 14:11:17;;;;;;;14.82;3.38;;;;;;;;;;5068784;28;20434;-73
2022/10/10 14:13:52;;;;;;;17.30;4.70;;;12.20;99.90;;;;;;5061615;28;20420;-73
2022/10/10 14:16:18;;;;;;;10.20;3.15;;;;;;;;;;5068836;28;20428;-73
2022/10/10 14:18:44;;;;;;;13.27;4.57;;;;;;;;;;5084968;28;20422;-73
2022/10/10 14:21:10;;;;;;;16.20;6.10;;;;;;;;;;5073568;28;20624;-73
2022/10/10 14:23:37;;;;;;;17.27;6.50;;;;;;;;;;5064704;28;20964;-77
2022/10/10 14:26:04;;;;;;;15.50;5.73;;;;;;;;;;5083399;28;20430;-77